createdAt,value
2022-10-14T00:01:27.064Z,101087.30
2022-10-14T00:04:11.187Z,101085.92
2022-10-14T00:06:38.956Z,101085.60
2022-10-14T00:09:09.007Z,101085.27
2022-10-14T00:11:37.412Z,101078.77
2022-10-14T00:14:12.631Z,101080.67
2022-10-14T00:16:43.099Z,101079.48
2022-10-14T00:19:12.679Z,101078.63
2022-10-14T00:21:43.328Z,101075.11
2022-10-14T00:24:16.194Z,101076.16
2022-10-14T00:26:44.916Z,101079.03
2022-10-14T00:29:19.013Z,101074.71
2022-10-14T00:31:47.961Z,101070.27
2022-10-14T00:34:17.139Z,101075.70
2022-10-14T00:36:45.270Z,101073.34
2022-10-14T00:39:16.700Z,101066.94
2022-10-14T00:41:45.574Z,101066.05
2022-10-14T00:44:13.393Z,101061.51
2022-10-14T00:46:44.315Z,101064.02
2022-10-14T00:49:39.147Z,101067.18
2022-10-14T00:52:33.488Z,101072.94
2022-10-14T00:55:06.785Z,101069.27
2022-10-14T00:57:35.668Z,101073.35
2022-10-14T01:00:13.532Z,101068.84
2022-10-14T01:02:42.195Z,101069.60
2022-10-14T01:05:27.217Z,101065.27
2022-10-14T01:07:59.614Z,101064.10
2022-10-14T01:10:54.905Z,101064.18
2022-10-14T01:13:32.604Z,101061.85
2022-10-14T01:16:24.041Z,101060.33
2022-10-14T01:18:57.820Z,101058.17
2022-10-14T01:21:31.501Z,101054.30
2022-10-14T01:24:05.696Z,101050.77
2022-10-14T01:26:58.071Z,101052.40
2022-10-14T01:29:44.708Z,101053.11
2022-10-14T01:32:47.105Z,101049.71
2022-10-14T01:35:40.303Z,101051.16
2022-10-14T01:38:28.996Z,101051.86
2022-10-14T01:41:15.549Z,101044.52
2022-10-14T01:43:47.247Z,101045.25
2022-10-14T01:46:19.141Z,101043.52
2022-10-14T01:48:53.563Z,101045.05
2022-10-14T01:51:28.588Z,101041.27
2022-10-14T01:54:11.200Z,101040.57
2022-10-14T01:56:40.809Z,101039.34
2022-10-14T01:59:12.653Z,101040.73
2022-10-14T02:01:40.689Z,101036.40
2022-10-14T02:04:20.641Z,101033.52
2022-10-14T02:07:18.640Z,101037.36
2022-10-14T02:09:58.922Z,101034.88
2022-10-14T02:12:57.343Z,101037.32
2022-10-14T02:15:40.266Z,101036.89
2022-10-14T02:18:47.045Z,101034.47
2022-10-14T02:21:39.816Z,101031.88
2022-10-14T02:24:18.898Z,101033.13
2022-10-14T02:26:50.091Z,101034.23
2022-10-14T02:29:20.187Z,101028.30
2022-10-14T02:31:49.425Z,101022.11
2022-10-14T02:34:22.189Z,101021.77
2022-10-14T02:36:50.791Z,101027.97
2022-10-14T02:39:31.295Z,101024.89
2022-10-14T02:41:59.193Z,101018.22
2022-10-14T02:44:27.224Z,101015.66
2022-10-14T02:46:57.910Z,101020.12
2022-10-14T02:49:28.940Z,101018.35
2022-10-14T02:51:57.081Z,101020.08
2022-10-14T02:54:24.897Z,101015.20
2022-10-14T02:56:52.915Z,101013.97
2022-10-14T02:59:20.714Z,101018.63
2022-10-14T03:01:50.005Z,101021.35
2022-10-14T03:04:17.879Z,101022.88
2022-10-14T03:06:45.789Z,101016.04
2022-10-14T03:09:14.207Z,101017.60
2022-10-14T03:11:42.174Z,101019.00
2022-10-14T03:14:12.447Z,101013.41
2022-10-14T03:16:40.383Z,101014.99
2022-10-14T03:19:08.245Z,101012.79
2022-10-14T03:21:46.413Z,101010.16
2022-10-14T03:24:19.595Z,101008.65
2022-10-14T03:26:50.579Z,101017.31
2022-10-14T03:29:20.537Z,101013.99
2022-10-14T03:32:02.933Z,101016.58
2022-10-14T03:34:36.013Z,101016.67
2022-10-14T03:37:06.525Z,101014.44
2022-10-14T03:39:35.405Z,101018.80
2022-10-14T03:42:07.385Z,101021.63
2022-10-14T03:44:41.422Z,101020.27
2022-10-14T03:47:28.431Z,101019.55
2022-10-14T03:49:56.525Z,101024.57
2022-10-14T03:52:32.407Z,101024.84
2022-10-14T03:55:15.803Z,101028.14
2022-10-14T03:57:44.232Z,101023.20
2022-10-14T04:00:13.662Z,101029.20
2022-10-14T04:02:42.328Z,101026.27
2022-10-14T04:05:20.885Z,101025.16
2022-10-14T04:07:49.550Z,101022.61
2022-10-14T04:10:18.037Z,101021.35
2022-10-14T04:12:50.988Z,101023.75
2022-10-14T04:15:31.341Z,101019.30
2022-10-14T04:18:16.338Z,101017.34
2022-10-14T04:20:44.617Z,101011.43
2022-10-14T04:23:12.782Z,101008.23
2022-10-14T04:25:41.849Z,101007.16
2022-10-14T04:28:09.680Z,101003.55
2022-10-14T04:30:47.862Z,101001.48
2022-10-14T04:33:20.109Z,100995.73
2022-10-14T04:35:48.818Z,100997.57
2022-10-14T04:38:24.291Z,101000.92
2022-10-14T04:40:56.184Z,100999.44
2022-10-14T04:43:28.992Z,100997.20
2022-10-14T04:45:58.884Z,101000.81
2022-10-14T04:48:29.778Z,100996.27
2022-10-14T04:50:59.008Z,100998.83
2022-10-14T04:53:57.454Z,100998.89
2022-10-14T04:56:46.729Z,100998.36
2022-10-14T04:59:15.432Z,100994.80
2022-10-14T05:01:54.567Z,100996.14
2022-10-14T05:04:22.742Z,100993.22
2022-10-14T05:06:50.940Z,100996.15
2022-10-14T05:09:19.606Z,100995.64
2022-10-14T05:11:47.977Z,100997.44
2022-10-14T05:14:18.801Z,100996.79
2022-10-14T05:16:48.937Z,100994.66
2022-10-14T05:27:47.713Z,100983.52
2022-10-14T05:30:16.651Z,100983.72
2022-10-14T05:32:47.967Z,100982.99
2022-10-14T05:35:33.963Z,100977.30
2022-10-14T05:38:06.886Z,100978.89
2022-10-14T05:40:37.188Z,100972.83
2022-10-14T05:43:05.123Z,100974.99
2022-10-14T05:45:34.348Z,100978.08
2022-10-14T05:48:02.970Z,100981.66
2022-10-14T05:50:31.199Z,100985.45
2022-10-14T05:53:02.791Z,100988.23
2022-10-14T05:55:36.148Z,100992.58
2022-10-14T05:58:04.176Z,100992.45
2022-10-14T06:00:35.069Z,100992.45
2022-10-14T06:03:05.297Z,100993.16
2022-10-14T06:05:36.523Z,100992.13
2022-10-14T06:08:05.161Z,100990.03
2022-10-14T06:10:35.593Z,100990.25
2022-10-14T06:13:03.694Z,100993.02
2022-10-14T06:15:32.632Z,100990.70
2022-10-14T06:18:01.441Z,100991.98
2022-10-14T06:20:29.715Z,100988.99
2022-10-14T06:23:02.554Z,100987.52
2022-10-14T06:25:33.575Z,100990.05
2022-10-14T06:28:05.685Z,100986.29
2022-10-14T06:30:36.078Z,100986.56
2022-10-14T06:33:04.363Z,100983.32
2022-10-14T06:35:33.130Z,100980.61
2022-10-14T06:38:01.670Z,100984.47
2022-10-14T06:40:30.008Z,100986.92
2022-10-14T06:42:59.048Z,100986.38
2022-10-14T06:45:27.551Z,100986.64
2022-10-14T06:47:56.703Z,100988.42
2022-10-14T06:50:25.657Z,100993.11
2022-10-14T06:52:55.374Z,100997.74
2022-10-14T06:55:23.940Z,100997.46
2022-10-14T06:57:52.362Z,101002.58
2022-10-14T07:00:20.767Z,101000.33
2022-10-14T07:02:50.016Z,101002.39
2022-10-14T07:05:18.592Z,101000.90
2022-10-14T07:07:49.594Z,101001.94
2022-10-14T07:10:18.166Z,100999.78
2022-10-14T07:12:47.293Z,101000.40
2022-10-14T07:15:16.209Z,100998.90
2022-10-14T07:17:44.146Z,101003.61
2022-10-14T07:20:12.612Z,101005.81
2022-10-14T07:22:40.866Z,101005.80
2022-10-14T07:25:09.450Z,101005.09
2022-10-14T07:30:44.580Z,101001.96
2022-10-14T07:33:12.924Z,101002.92
2022-10-14T07:35:41.247Z,101000.70
2022-10-14T07:38:09.645Z,100996.79
2022-10-14T07:40:37.764Z,101004.38
2022-10-14T07:43:05.991Z,101001.86
2022-10-14T07:45:36.807Z,101000.63
2022-10-14T07:48:05.756Z,100999.20
2022-10-14T07:50:34.305Z,101000.56
2022-10-14T07:53:03.622Z,101002.30
2022-10-14T07:55:32.154Z,100995.73
2022-10-14T07:58:00.957Z,100999.12
2022-10-14T08:00:28.849Z,100995.77
2022-10-14T08:02:56.715Z,100996.64
2022-10-14T08:05:37.615Z,100998.36
2022-10-14T08:08:07.835Z,101001.77
2022-10-14T08:10:37.376Z,101003.13
2022-10-14T08:13:05.965Z,101001.89
2022-10-14T08:15:40.766Z,101007.53
2022-10-14T08:18:10.814Z,101008.98
2022-10-14T08:20:41.370Z,101006.70
2022-10-14T08:23:09.754Z,101007.39
2022-10-14T08:25:38.036Z,101004.09
2022-10-14T08:28:06.272Z,101004.27
2022-10-14T08:30:35.257Z,101009.41
2022-10-14T08:33:03.587Z,101002.23
2022-10-14T08:35:31.975Z,101002.40
2022-10-14T08:38:02.801Z,100996.59
2022-10-14T08:40:44.661Z,100995.18
2022-10-14T08:43:37.904Z,100993.88
2022-10-14T08:46:38.843Z,100993.47
2022-10-14T08:49:22.627Z,100986.18
2022-10-14T08:52:19.017Z,100985.97
2022-10-14T08:54:52.189Z,100992.59
2022-10-14T08:57:29.902Z,100990.52
2022-10-14T08:59:58.009Z,100987.03
2022-10-14T09:02:42.072Z,100988.61
2022-10-14T09:05:15.848Z,100986.08
2022-10-14T09:07:47.665Z,100990.26
2022-10-14T09:10:25.824Z,100992.80
2022-10-14T09:12:56.657Z,100987.25
2022-10-14T09:15:35.020Z,100989.06
2022-10-14T09:18:12.559Z,100986.33
2022-10-14T09:20:42.326Z,100986.86
2022-10-14T09:23:18.825Z,100989.23
2022-10-14T09:25:59.567Z,100987.83
2022-10-14T09:28:36.433Z,100988.09
2022-10-14T09:31:07.400Z,100985.71
2022-10-14T09:33:42.366Z,100989.75
2022-10-14T09:36:17.577Z,100988.77
2022-10-14T09:38:53.340Z,100988.04
2022-10-14T09:41:28.248Z,100986.40
2022-10-14T09:44:18.665Z,100984.36
2022-10-14T09:46:56.414Z,100986.37
2022-10-14T09:49:47.150Z,100986.75
2022-10-14T09:52:24.616Z,100986.40
2022-10-14T09:54:55.923Z,100984.70
2022-10-14T09:57:25.424Z,100980.59
2022-10-14T09:59:58.948Z,100976.23
2022-10-14T10:02:42.277Z,100976.94
2022-10-14T10:05:27.357Z,100974.78
2022-10-14T10:08:07.178Z,100975.48
2022-10-14T10:10:35.374Z,100972.17
2022-10-14T10:13:03.515Z,100972.65
2022-10-14T10:15:31.461Z,100969.13
2022-10-14T10:17:59.647Z,100970.52
2022-10-14T10:20:33.988Z,100971.30
2022-10-14T10:23:29.668Z,100967.79
2022-10-14T10:26:15.642Z,100965.45
2022-10-14T10:28:47.026Z,100961.52
2022-10-14T10:31:21.453Z,100961.09
2022-10-14T10:34:02.397Z,100955.49
2022-10-14T10:36:43.621Z,100955.34
2022-10-14T10:39:20.199Z,100952.54
2022-10-14T10:42:13.185Z,100952.27
2022-10-14T10:44:59.093Z,100951.55
2022-10-14T10:47:37.674Z,100951.45
2022-10-14T10:50:31.795Z,100951.55
2022-10-14T10:53:13.896Z,100950.05
2022-10-14T10:55:54.373Z,100947.49
2022-10-14T10:58:35.547Z,100948.55
2022-10-14T11:01:26.381Z,100944.35
2022-10-14T11:04:14.037Z,100944.50
2022-10-14T11:07:07.173Z,100939.66
2022-10-14T11:10:09.298Z,100938.90
2022-10-14T11:13:02.458Z,100935.52
2022-10-14T11:15:41.961Z,100931.38
2022-10-14T11:18:29.159Z,100931.02
2022-10-14T11:21:11.157Z,100925.27
2022-10-14T11:23:41.770Z,100925.05
2022-10-14T11:29:28.176Z,100920.68
2022-10-14T11:32:07.732Z,100922.54
2022-10-14T11:34:43.632Z,100924.23
2022-10-14T11:37:28.488Z,100919.36
2022-10-14T11:40:21.717Z,100917.83
2022-10-14T11:42:56.156Z,100921.20
2022-10-14T11:45:48.834Z,100917.84
2022-10-14T11:48:22.820Z,100918.63
2022-10-14T11:50:57.185Z,100915.46
2022-10-14T11:53:43.572Z,100916.50
2022-10-14T11:56:29.780Z,100911.98
2022-10-14T11:59:05.752Z,100913.95
2022-10-14T12:01:41.951Z,100911.80
2022-10-14T12:04:28.718Z,100912.77
2022-10-14T12:07:13.412Z,100911.34
2022-10-14T12:09:48.837Z,100905.17
2022-10-14T12:12:23.618Z,100905.12
2022-10-14T12:15:00.706Z,100903.37
2022-10-14T12:17:40.294Z,100901.52
2022-10-14T12:20:36.322Z,100896.96
2022-10-14T12:23:13.321Z,100894.58
2022-10-14T12:26:02.365Z,100892.67
2022-10-14T12:28:38.018Z,100893.48
2022-10-14T12:31:29.506Z,100892.67
2022-10-14T12:34:19.169Z,100893.73
2022-10-14T12:36:50.888Z,100894.47
2022-10-14T12:39:23.718Z,100889.45
2022-10-14T12:42:02.048Z,100889.71
2022-10-14T12:45:07.178Z,100889.53
2022-10-14T12:47:37.340Z,100888.30
2022-10-14T12:50:16.758Z,100890.99
2022-10-14T12:52:55.447Z,100886.80
2022-10-14T12:55:28.262Z,100883.27
2022-10-14T12:58:02.688Z,100883.36
2022-10-14T13:00:36.303Z,100883.32
2022-10-14T13:03:18.297Z,100879.16
2022-10-14T13:05:48.008Z,100878.53
2022-10-14T13:08:16.281Z,100874.66
2022-10-14T13:11:00.323Z,100869.14
2022-10-14T13:13:53.853Z,100864.97
2022-10-14T13:16:25.008Z,100862.29
2022-10-14T13:18:54.507Z,100857.95
2022-10-14T13:21:35.144Z,100852.27
2022-10-14T13:24:22.556Z,100853.86
2022-10-14T13:26:53.429Z,100853.18
2022-10-14T13:29:34.179Z,100852.04
2022-10-14T13:32:39.887Z,100850.92
2022-10-14T13:36:00.883Z,100851.53
2022-10-14T13:38:44.534Z,100851.85
2022-10-14T13:41:18.866Z,100847.84
2022-10-14T13:43:47.404Z,100852.80
2022-10-14T13:46:23.389Z,100848.41
2022-10-14T13:48:56.349Z,100845.09
2022-10-14T13:51:36.270Z,100848.73
2022-10-14T13:54:12.125Z,100847.77
2022-10-14T13:56:41.145Z,100846.23
2022-10-14T13:59:43.428Z,100841.08
2022-10-14T14:02:25.678Z,100841.79
2022-10-14T14:04:58.025Z,100845.16
2022-10-14T14:08:08.489Z,100845.00
2022-10-14T14:10:25.684Z,100843.16
2022-10-14T14:12:54.743Z,100845.73
2022-10-14T14:15:29.676Z,100844.39
2022-10-14T14:17:57.935Z,100846.53
2022-10-14T14:20:35.463Z,100843.14
2022-10-14T14:23:05.363Z,100842.34
2022-10-14T14:25:35.395Z,100839.86
2022-10-14T14:28:14.402Z,100840.08
2022-10-14T14:30:57.493Z,100841.79
2022-10-14T14:33:31.817Z,100841.98
2022-10-14T14:36:03.074Z,100840.70
2022-10-14T14:38:35.766Z,100841.45
2022-10-14T14:41:19.538Z,100840.66
2022-10-14T14:43:57.363Z,100837.40
2022-10-14T14:46:40.733Z,100835.08
2022-10-14T14:49:16.152Z,100836.13
2022-10-14T14:51:48.144Z,100833.65
2022-10-14T14:54:19.771Z,100832.28
2022-10-14T14:57:03.354Z,100830.88
2022-10-14T14:59:39.721Z,100831.01
2022-10-14T15:02:20.708Z,100835.27
2022-10-14T15:05:10.703Z,100832.27
2022-10-14T15:07:43.550Z,100831.65
2022-10-14T15:10:24.898Z,100826.55
2022-10-14T15:12:57.278Z,100829.84
2022-10-14T15:15:28.063Z,100831.86
2022-10-14T15:18:15.013Z,100833.02
2022-10-14T15:20:43.654Z,100828.05
2022-10-14T15:23:38.569Z,100821.92
2022-10-14T15:26:34.918Z,100826.49
2022-10-14T15:29:14.789Z,100828.78
2022-10-14T15:31:45.955Z,100827.69
2022-10-14T15:34:21.818Z,100825.60
2022-10-14T15:36:52.150Z,100820.31
2022-10-14T15:39:22.041Z,100825.15
2022-10-14T15:41:50.239Z,100820.78
2022-10-14T15:44:19.601Z,100818.69
2022-10-14T15:47:07.941Z,100822.46
2022-10-14T15:49:41.724Z,100821.92
2022-10-14T15:52:15.949Z,100822.30
2022-10-14T15:54:46.315Z,100823.77
2022-10-14T15:57:16.927Z,100819.34
2022-10-14T15:59:51.191Z,100823.92
2022-10-14T16:02:27.918Z,100823.96
2022-10-14T16:05:28.724Z,100822.98
2022-10-14T16:08:36.877Z,100822.54
2022-10-14T16:11:23.044Z,100820.22
2022-10-14T16:13:52.599Z,100823.16
2022-10-14T16:16:33.905Z,100817.37
2022-10-14T16:19:07.743Z,100814.67
2022-10-14T16:21:53.748Z,100815.67
2022-10-14T16:24:28.107Z,100813.73
2022-10-14T16:26:57.178Z,100810.80
2022-10-14T16:29:26.476Z,100811.38
2022-10-14T16:31:57.178Z,100805.35
2022-10-14T16:34:27.105Z,100804.95
2022-10-14T16:36:55.318Z,100800.58
2022-10-14T16:39:24.432Z,100800.60
2022-10-14T16:41:53.399Z,100798.36
2022-10-14T16:44:27.915Z,100795.49
2022-10-14T16:47:17.755Z,100791.81
2022-10-14T16:49:49.743Z,100787.89
2022-10-14T16:52:22.998Z,100787.45
2022-10-14T16:54:58.642Z,100793.27
2022-10-14T16:57:31.897Z,100789.97
2022-10-14T17:00:02.419Z,100785.27
2022-10-14T17:02:33.100Z,100783.33
2022-10-14T17:05:02.303Z,100782.84
2022-10-14T17:07:30.723Z,100781.45
2022-10-14T17:10:03.940Z,100785.29
2022-10-14T17:12:32.964Z,100785.94
2022-10-14T17:15:01.724Z,100786.47
2022-10-14T17:17:30.203Z,100783.09
2022-10-14T17:19:59.526Z,100782.84
2022-10-14T17:22:28.625Z,100784.70
2022-10-14T17:24:56.955Z,100778.95
2022-10-14T17:27:26.262Z,100782.60
2022-10-14T17:29:54.486Z,100778.39
2022-10-14T17:32:22.797Z,100779.02
2022-10-14T17:34:53.542Z,100779.04
2022-10-14T17:37:22.398Z,100777.83
2022-10-14T17:39:50.549Z,100777.69
2022-10-14T17:42:20.277Z,100771.12
2022-10-14T17:44:49.023Z,100771.65
2022-10-14T17:47:17.758Z,100769.38
2022-10-14T17:49:45.927Z,100764.76
2022-10-14T17:52:21.642Z,100764.19
2022-10-14T17:54:58.867Z,100764.36
2022-10-14T17:57:31.702Z,100760.95
2022-10-14T18:00:03.132Z,100760.64
2022-10-14T18:02:42.670Z,100754.42
2022-10-14T18:05:27.836Z,100755.82
2022-10-14T18:08:06.841Z,100752.59
2022-10-14T18:10:55.964Z,100748.98
2022-10-14T18:13:30.908Z,100751.26
2022-10-14T18:16:49.029Z,100751.02
2022-10-14T18:23:09.676Z,100752.95
2022-10-14T18:25:38.771Z,100754.22
2022-10-14T18:28:13.370Z,100750.79
2022-10-14T18:30:47.186Z,100750.18
2022-10-14T18:33:17.664Z,100749.27
2022-10-14T18:35:48.763Z,100747.79
2022-10-14T18:38:27.981Z,100746.96
2022-10-14T18:41:00.971Z,100749.71
2022-10-14T18:43:33.571Z,100748.80
2022-10-14T18:46:14.072Z,100746.63
2022-10-14T18:48:48.613Z,100748.88
2022-10-14T18:51:22.475Z,100746.98
2022-10-14T18:54:00.335Z,100753.18
2022-10-14T18:56:40.708Z,100752.13
2022-10-14T18:59:15.646Z,100749.81
2022-10-14T19:01:49.077Z,100751.16
2022-10-14T19:04:20.742Z,100751.48
2022-10-14T19:06:50.235Z,100746.09
2022-10-14T19:09:30.351Z,100752.30
2022-10-14T19:12:22.929Z,100749.98
2022-10-14T19:14:51.815Z,100749.36
2022-10-14T19:17:26.691Z,100750.23
2022-10-14T19:20:00.744Z,100746.03
2022-10-14T19:22:32.529Z,100744.67
2022-10-14T19:25:01.240Z,100744.78
2022-10-14T19:27:29.932Z,100745.54
2022-10-14T19:29:59.058Z,100746.14
2022-10-14T19:32:27.573Z,100741.66
2022-10-14T19:34:58.674Z,100739.39
2022-10-14T19:37:29.428Z,100734.97
2022-10-14T19:39:59.472Z,100731.33
2022-10-14T19:42:28.641Z,100732.13
2022-10-14T19:48:51.247Z,100731.13
2022-10-14T19:51:21.704Z,100729.67
2022-10-14T19:53:51.611Z,100725.36
2022-10-14T19:56:22.436Z,100724.85
2022-10-14T19:58:54.090Z,100722.09
2022-10-14T20:01:27.964Z,100724.61
2022-10-14T20:04:00.786Z,100725.02
2022-10-14T20:06:34.553Z,100719.95
2022-10-14T20:09:07.495Z,100719.61
2022-10-14T20:11:40.859Z,100720.10
2022-10-14T20:14:11.255Z,100721.55
2022-10-14T20:16:40.681Z,100725.27
2022-10-14T20:19:09.423Z,100721.66
2022-10-14T20:21:38.507Z,100724.04
2022-10-14T20:24:07.142Z,100720.64
2022-10-14T20:26:37.895Z,100728.17
2022-10-14T20:29:07.755Z,100728.25
2022-10-14T20:31:36.140Z,100728.33
2022-10-14T20:34:10.146Z,100725.23
2022-10-14T20:36:41.150Z,100725.85
2022-10-14T20:39:11.051Z,100726.31
2022-10-14T20:41:39.569Z,100728.77
2022-10-14T20:44:08.420Z,100727.57
2022-10-14T20:46:37.783Z,100724.42
2022-10-14T20:49:07.000Z,100725.54
2022-10-14T20:51:36.368Z,100722.44
2022-10-14T20:54:08.414Z,100726.89
2022-10-14T20:56:40.426Z,100723.44
2022-10-14T20:59:12.178Z,100724.86
2022-10-14T21:01:40.744Z,100726.00
2022-10-14T21:04:09.154Z,100727.69
2022-10-14T21:06:39.019Z,100726.07
2022-10-14T21:09:08.615Z,100722.85
2022-10-14T21:11:40.342Z,100721.38
2022-10-14T21:14:08.995Z,100716.19
2022-10-14T21:16:37.328Z,100715.74
2022-10-14T21:19:09.760Z,100712.45
2022-10-14T21:21:40.228Z,100709.23
2022-10-14T21:24:14.541Z,100700.57
2022-10-14T21:26:48.024Z,100700.48
2022-10-14T21:29:16.496Z,100695.92
2022-10-14T21:31:44.790Z,100694.80
2022-10-14T21:34:15.067Z,100685.98
2022-10-14T21:36:43.427Z,100684.13
2022-10-14T21:39:15.239Z,100684.44
2022-10-14T21:41:44.417Z,100681.70
2022-10-14T21:44:20.046Z,100683.99
2022-10-14T21:46:48.989Z,100679.70
2022-10-14T21:49:19.645Z,100679.39
2022-10-14T21:51:48.810Z,100680.27
2022-10-14T21:54:17.178Z,100682.74
2022-10-14T21:56:46.159Z,100680.80
2022-10-14T21:59:14.867Z,100674.00
2022-10-14T22:01:43.645Z,100675.40
2022-10-14T22:04:11.791Z,100673.08
2022-10-14T22:06:41.081Z,100668.49
2022-10-14T22:09:11.548Z,100665.89
2022-10-14T22:11:42.191Z,100663.46
2022-10-14T22:14:17.649Z,100661.13
2022-10-14T22:16:47.783Z,100662.60
2022-10-14T22:19:16.144Z,100656.52
2022-10-14T22:21:46.508Z,100656.77
2022-10-14T22:24:14.992Z,100656.64
2022-10-14T22:26:42.975Z,100653.39
2022-10-14T22:29:16.160Z,100650.21
2022-10-14T22:31:45.565Z,100647.44
2022-10-14T22:34:16.871Z,100646.94
2022-10-14T22:36:46.327Z,100651.18
2022-10-14T22:39:17.738Z,100653.60
2022-10-14T22:41:46.819Z,100654.40
2022-10-14T22:44:17.649Z,100652.00
2022-10-14T22:46:47.768Z,100651.02
2022-10-14T22:49:17.448Z,100650.69
2022-10-14T22:51:47.153Z,100648.71
2022-10-14T22:54:15.934Z,100646.58
2022-10-14T22:56:44.972Z,100642.42
2022-10-14T22:59:15.495Z,100636.27
2022-10-14T23:01:44.040Z,100633.94
2022-10-14T23:04:12.783Z,100625.70
2022-10-14T23:06:44.993Z,100622.06
2022-10-14T23:09:13.086Z,100623.56
2022-10-14T23:11:42.038Z,100621.63
2022-10-14T23:14:10.356Z,100616.94
2022-10-14T23:16:39.609Z,100621.55
2022-10-14T23:19:09.267Z,100613.35
2022-10-14T23:21:38.713Z,100619.12
2022-10-14T23:24:10.695Z,100617.84
2022-10-14T23:26:39.168Z,100618.46
2022-10-14T23:29:11.750Z,100618.05
2022-10-14T23:31:41.466Z,100617.42
2022-10-14T23:34:14.364Z,100616.65
2022-10-14T23:36:43.237Z,100612.34
2022-10-14T23:39:11.560Z,100608.16
2022-10-14T23:41:39.789Z,100610.20
2022-10-14T23:44:08.016Z,100606.34
2022-10-14T23:46:36.443Z,100599.44
2022-10-14T23:49:21.549Z,100598.00
2022-10-14T23:51:52.654Z,100593.78
2022-10-14T23:54:21.193Z,100593.84
2022-10-14T23:56:49.555Z,100592.80
2022-10-14T23:59:17.720Z,100587.17
